createdAt,value
2023-01-30T00:01:03.827Z,101182.69
2023-01-30T00:03:30.429Z,101145.72
2023-01-30T00:05:56.987Z,101154.34
2023-01-30T00:08:24.216Z,101156.22
2023-01-30T00:10:50.706Z,101165.78
2023-01-30T00:13:17.289Z,101178.81
2023-01-30T00:15:43.951Z,101175.25
2023-01-30T00:18:10.603Z,101170.09
2023-01-30T00:20:37.468Z,101164.91
2023-01-30T00:23:04.383Z,101147.75
2023-01-30T00:25:31.714Z,101153.00
2023-01-30T00:28:02.239Z,101157.41
2023-01-30T00:30:29.416Z,101146.25
2023-01-30T00:32:59.737Z,101148.00
2023-01-30T00:35:28.693Z,101138.47
2023-01-30T00:37:59.280Z,101135.97
2023-01-30T00:40:27.262Z,101137.75
2023-01-30T00:43:12.917Z,101129.94
2023-01-30T00:46:01.424Z,101136.81
2023-01-30T00:48:28.315Z,101111.03
2023-01-30T00:50:54.770Z,101116.28
2023-01-30T00:53:21.276Z,101091.38
2023-01-30T00:55:47.759Z,101094.81
2023-01-30T00:58:14.196Z,101094.00
2023-01-30T01:00:40.698Z,101096.56
2023-01-30T01:03:07.579Z,101091.44
2023-01-30T01:05:34.491Z,101089.69
2023-01-30T01:08:01.304Z,101083.69
2023-01-30T01:10:27.785Z,101087.25
2023-01-30T01:12:54.253Z,101089.84
2023-01-30T01:15:22.375Z,101084.66
2023-01-30T01:17:49.774Z,101081.25
2023-01-30T01:20:17.740Z,101077.03
2023-01-30T01:22:44.647Z,101072.75
2023-01-30T01:25:11.578Z,101056.34
2023-01-30T01:27:38.593Z,101060.78
2023-01-30T01:30:06.194Z,101052.13
2023-01-30T01:32:32.760Z,101051.28
2023-01-30T01:34:59.228Z,101062.50
2023-01-30T01:37:25.691Z,101058.84
2023-01-30T01:40:10.992Z,101055.38
2023-01-30T01:42:38.760Z,101040.88
2023-01-30T01:45:15.368Z,101043.56
2023-01-30T01:47:59.208Z,101040.22
2023-01-30T01:50:38.513Z,101044.56
2023-01-30T01:53:05.564Z,101051.50
2023-01-30T01:55:32.583Z,101048.03
2023-01-30T01:58:08.700Z,101046.31
2023-01-30T02:00:35.153Z,101047.28
2023-01-30T02:03:19.706Z,101033.47
2023-01-30T02:05:50.788Z,101020.56
2023-01-30T02:08:21.971Z,101017.13
2023-01-30T02:11:03.171Z,101014.59
2023-01-30T02:13:30.327Z,101010.28
2023-01-30T02:16:00.184Z,101013.75
2023-01-30T02:18:29.473Z,101004.19
2023-01-30T02:21:05.157Z,100993.91
2023-01-30T02:23:56.572Z,100993.03
2023-01-30T02:27:00.727Z,101000.88
2023-01-30T02:30:05.172Z,100981.06
2023-01-30T02:32:59.502Z,100977.63
2023-01-30T02:35:38.488Z,100965.53
2023-01-30T02:38:20.233Z,100970.75
2023-01-30T02:40:56.004Z,100963.94
2023-01-30T02:43:40.087Z,100963.00
2023-01-30T02:46:20.336Z,100963.84
2023-01-30T02:49:07.850Z,100952.72
2023-01-30T02:51:37.757Z,100938.91
2023-01-30T02:54:11.181Z,100945.81
2023-01-30T02:56:57.451Z,100934.63
2023-01-30T02:59:44.644Z,100937.22
2023-01-30T03:02:16.532Z,100937.22
2023-01-30T03:04:58.465Z,100936.44
2023-01-30T03:08:04.237Z,100933.88
2023-01-30T03:10:39.572Z,100918.34
2023-01-30T03:13:38.428Z,100914.09
2023-01-30T03:16:38.908Z,100921.91
2023-01-30T03:19:09.817Z,100927.94
2023-01-30T03:21:42.065Z,100920.25
2023-01-30T03:24:08.699Z,100921.97
2023-01-30T03:26:39.929Z,100914.22
2023-01-30T03:29:06.429Z,100920.16
2023-01-30T03:31:33.213Z,100913.34
2023-01-30T03:33:59.724Z,100902.13
2023-01-30T03:36:26.226Z,100902.13
2023-01-30T03:38:52.808Z,100901.25
2023-01-30T03:41:19.395Z,100896.94
2023-01-30T03:43:45.775Z,100900.38
2023-01-30T03:46:12.246Z,100894.38
2023-01-30T03:48:38.760Z,100891.78
2023-01-30T03:51:05.406Z,100866.00
2023-01-30T03:53:31.830Z,100862.50
2023-01-30T03:55:58.237Z,100870.25
2023-01-30T03:58:24.783Z,100867.72
2023-01-30T04:00:51.302Z,100859.97
2023-01-30T04:03:17.951Z,100866.81
2023-01-30T04:05:44.369Z,100850.44
2023-01-30T04:08:11.099Z,100852.19
2023-01-30T04:10:37.487Z,100854.78
2023-01-30T04:13:03.864Z,100840.09
2023-01-30T04:15:30.342Z,100862.56
2023-01-30T04:17:56.789Z,100847.00
2023-01-30T04:20:23.395Z,100832.34
2023-01-30T04:22:49.788Z,100837.50
2023-01-30T04:25:17.009Z,100827.13
2023-01-30T04:27:44.504Z,100854.78
2023-01-30T04:30:11.238Z,100828.88
2023-01-30T04:32:37.652Z,100828.03
2023-01-30T04:35:04.475Z,100839.25
2023-01-30T04:37:31.139Z,100822.84
2023-01-30T04:39:57.588Z,100828.97
2023-01-30T04:42:24.035Z,100830.75
2023-01-30T04:44:50.467Z,100834.19
2023-01-30T04:47:17.560Z,100831.59
2023-01-30T04:49:44.176Z,100830.69
2023-01-30T04:52:10.590Z,100837.59
2023-01-30T04:54:37.053Z,100832.44
2023-01-30T04:57:03.598Z,100841.97
2023-01-30T04:59:30.051Z,100835.88
2023-01-30T05:01:56.609Z,100824.69
2023-01-30T05:04:23.161Z,100816.94
2023-01-30T05:06:49.608Z,100817.75
2023-01-30T05:09:16.215Z,100814.34
2023-01-30T05:11:42.683Z,100816.94
2023-01-30T05:14:09.165Z,100821.25
2023-01-30T05:16:35.672Z,100812.63
2023-01-30T05:19:02.114Z,100824.72
2023-01-30T05:21:28.753Z,100828.16
2023-01-30T05:23:56.438Z,100810.03
2023-01-30T05:26:24.134Z,100817.78
2023-01-30T05:28:55.627Z,100810.91
2023-01-30T05:31:22.237Z,100825.56
2023-01-30T05:33:50.315Z,100817.81
2023-01-30T05:36:18.907Z,100809.16
2023-01-30T05:38:45.613Z,100805.69
2023-01-30T05:41:14.341Z,100797.06
2023-01-30T05:43:41.488Z,100797.06
2023-01-30T05:46:09.806Z,100797.06
2023-01-30T05:48:36.255Z,100798.00
2023-01-30T05:51:02.679Z,100791.94
2023-01-30T05:53:32.352Z,100792.00
2023-01-30T05:56:01.305Z,100786.78
2023-01-30T05:58:28.667Z,100788.56
2023-01-30T06:01:00.539Z,100793.72
2023-01-30T06:03:27.103Z,100797.19
2023-01-30T06:05:53.585Z,100793.75
2023-01-30T06:08:20.396Z,100792.06
2023-01-30T06:10:46.814Z,100795.53
2023-01-30T06:13:13.259Z,100800.72
2023-01-30T06:15:39.907Z,100811.06
2023-01-30T06:18:06.692Z,100814.53
2023-01-30T06:20:33.204Z,100812.81
2023-01-30T06:22:59.613Z,100815.47
2023-01-30T06:25:27.328Z,100821.50
2023-01-30T06:27:53.739Z,100819.78
2023-01-30T06:30:20.281Z,100813.75
2023-01-30T06:32:50.494Z,100821.50
2023-01-30T06:35:17.377Z,100818.13
2023-01-30T06:37:45.497Z,100829.34
2023-01-30T06:40:13.118Z,100831.91
2023-01-30T06:42:44.428Z,100833.66
2023-01-30T06:45:11.288Z,100822.47
2023-01-30T06:47:48.721Z,100831.09
2023-01-30T06:50:17.814Z,100833.72
2023-01-30T06:52:49.279Z,100835.44
2023-01-30T06:55:17.931Z,100846.69
2023-01-30T06:57:45.643Z,100841.53
2023-01-30T07:00:15.945Z,100855.34
2023-01-30T07:02:42.379Z,100849.34
2023-01-30T07:05:10.211Z,100848.47
2023-01-30T07:07:37.569Z,100840.72
2023-01-30T07:10:08.823Z,100837.25
2023-01-30T07:12:36.351Z,100841.63
2023-01-30T07:15:04.682Z,100829.50
2023-01-30T07:17:31.159Z,100842.47
2023-01-30T07:19:57.633Z,100845.06
2023-01-30T07:22:24.138Z,100822.59
2023-01-30T07:24:50.585Z,100835.56
2023-01-30T07:27:17.390Z,100831.25
2023-01-30T07:29:43.908Z,100837.34
2023-01-30T07:32:19.876Z,100841.66
2023-01-30T07:34:47.602Z,100839.06
2023-01-30T07:37:14.847Z,100831.28
2023-01-30T07:39:41.678Z,100832.16
2023-01-30T07:42:08.317Z,100833.88
2023-01-30T07:44:34.823Z,100845.16
2023-01-30T07:47:01.379Z,100846.03
2023-01-30T07:49:27.923Z,100850.34
2023-01-30T07:51:54.462Z,100852.97
2023-01-30T07:54:21.034Z,100870.31
2023-01-30T07:56:47.414Z,100865.13
2023-01-30T07:59:13.881Z,100864.25
2023-01-30T08:01:40.335Z,100866.03
2023-01-30T08:04:06.804Z,100859.97
2023-01-30T08:06:38.809Z,100869.47
2023-01-30T08:09:06.736Z,100864.28
2023-01-30T08:11:33.789Z,100867.75
2023-01-30T08:14:00.427Z,100859.97
2023-01-30T08:16:27.309Z,100862.59
2023-01-30T08:18:53.929Z,100879.03
2023-01-30T08:21:20.597Z,100879.91
2023-01-30T08:23:47.119Z,100872.13
2023-01-30T08:26:13.736Z,100885.94
2023-01-30T08:28:40.789Z,100888.56
2023-01-30T08:31:12.388Z,100885.09
2023-01-30T08:33:39.254Z,100894.63
2023-01-30T08:36:06.010Z,100889.50
2023-01-30T08:38:32.484Z,100889.50
2023-01-30T08:41:00.897Z,100880.84
2023-01-30T08:43:27.416Z,100893.00
2023-01-30T08:45:54.728Z,100887.81
2023-01-30T08:48:21.213Z,100898.19
2023-01-30T08:50:47.712Z,100901.69
2023-01-30T08:53:14.334Z,100893.91
2023-01-30T08:55:40.792Z,100914.69
2023-01-30T08:58:07.280Z,100909.53
2023-01-30T09:00:33.810Z,100915.63
2023-01-30T09:03:01.763Z,100942.47
2023-01-30T09:05:29.958Z,100935.56
2023-01-30T09:07:56.496Z,100929.47
2023-01-30T09:10:24.315Z,100938.16
2023-01-30T09:12:50.817Z,100916.50
2023-01-30T09:15:17.320Z,100899.16
2023-01-30T09:17:44.787Z,100899.16
2023-01-30T09:20:12.420Z,100900.88
2023-01-30T09:22:39.174Z,100896.59
2023-01-30T09:25:06.795Z,100902.66
2023-01-30T09:27:33.691Z,100893.97
2023-01-30T09:30:00.199Z,100915.66
2023-01-30T09:32:26.632Z,100909.59
2023-01-30T09:34:53.441Z,100914.78
2023-01-30T09:37:19.848Z,100915.66
2023-01-30T09:39:46.466Z,100913.94
2023-01-30T09:42:58.804Z,100930.38
2023-01-30T09:45:59.158Z,100938.19
2023-01-30T09:48:35.383Z,100922.59
2023-01-30T09:51:22.743Z,100932.16
2023-01-30T09:54:14.138Z,100927.81
2023-01-30T09:56:41.216Z,100939.94
2023-01-30T09:59:19.454Z,100923.47
2023-01-30T10:01:48.624Z,100928.69
2023-01-30T10:04:18.049Z,100928.69
2023-01-30T10:07:04.744Z,100930.41
2023-01-30T10:09:56.696Z,100937.38
2023-01-30T10:12:50.527Z,100941.72
2023-01-30T10:15:42.724Z,100961.63
2023-01-30T10:18:39.581Z,100940.84
2023-01-30T10:21:26.962Z,100954.72
2023-01-30T10:24:05.701Z,100954.69
2023-01-30T10:26:32.575Z,100940.84
2023-01-30T10:29:31.414Z,100938.22
2023-01-30T10:32:10.145Z,100945.16
2023-01-30T10:34:43.388Z,100946.03
2023-01-30T10:37:18.507Z,100954.69
2023-01-30T10:40:14.290Z,100946.00
2023-01-30T10:42:49.714Z,100946.03
2023-01-30T10:45:21.171Z,100952.09
2023-01-30T10:48:31.434Z,100950.34
2023-01-30T10:51:29.531Z,100955.53
2023-01-30T10:54:05.187Z,100954.72
2023-01-30T10:56:47.381Z,100953.84
2023-01-30T10:59:50.185Z,100973.78
2023-01-30T11:02:16.659Z,100954.72
2023-01-30T11:04:56.431Z,100955.59
2023-01-30T11:07:22.906Z,100958.22
2023-01-30T11:09:49.730Z,100956.44
2023-01-30T11:12:16.190Z,100949.53
2023-01-30T11:14:56.632Z,100954.72
2023-01-30T11:17:34.073Z,100951.22
2023-01-30T11:20:22.623Z,100954.69
2023-01-30T11:23:06.961Z,100955.59
2023-01-30T11:25:49.219Z,100950.41
2023-01-30T11:28:22.337Z,100965.16
2023-01-30T11:30:54.686Z,100962.56
2023-01-30T11:33:23.837Z,100957.34
2023-01-30T11:35:55.776Z,100974.69
2023-01-30T11:38:25.507Z,100969.50
2023-01-30T11:41:04.561Z,100966.03
2023-01-30T11:43:33.865Z,100969.50
2023-01-30T11:46:00.814Z,100966.00
2023-01-30T11:48:33.934Z,100959.94
2023-01-30T11:51:17.991Z,100962.53
2023-01-30T11:53:49.134Z,100970.34
2023-01-30T11:56:30.849Z,100977.28
2023-01-30T11:58:59.957Z,100987.72
2023-01-30T12:01:30.501Z,100952.16
2023-01-30T12:03:58.715Z,100972.09
2023-01-30T12:06:34.921Z,100932.22
2023-01-30T12:09:01.954Z,100964.28
2023-01-30T12:11:31.499Z,100962.56
2023-01-30T12:14:27.512Z,100975.56
2023-01-30T12:17:02.437Z,100977.31
2023-01-30T12:19:39.983Z,100973.84
2023-01-30T12:22:24.527Z,100986.84
2023-01-30T12:25:25.779Z,100961.72
2023-01-30T12:28:10.624Z,100959.97
2023-01-30T12:30:43.824Z,100953.03
2023-01-30T12:33:15.374Z,100947.84
2023-01-30T12:36:02.099Z,100955.66
2023-01-30T12:38:58.141Z,100966.06
2023-01-30T12:41:52.519Z,100965.19
2023-01-30T12:44:45.404Z,100966.94
2023-01-30T12:47:14.795Z,100955.66
2023-01-30T12:49:54.388Z,100953.06
2023-01-30T12:52:41.668Z,100955.66
2023-01-30T12:55:32.417Z,100950.47
2023-01-30T12:58:36.945Z,100962.59
2023-01-30T13:01:16.534Z,100975.63
2023-01-30T13:03:50.883Z,100979.06
2023-01-30T13:06:52.670Z,100981.69
2023-01-30T13:09:53.109Z,100971.28
2023-01-30T13:12:32.510Z,100979.06
2023-01-30T13:15:08.420Z,100992.09
2023-01-30T13:17:40.918Z,100984.28
2023-01-30T13:20:13.771Z,100984.28
2023-01-30T13:22:49.839Z,100988.63
2023-01-30T13:25:53.986Z,100992.09
2023-01-30T13:28:26.111Z,101021.59
2023-01-30T13:30:55.000Z,101005.13
2023-01-30T13:33:28.660Z,101013.78
2023-01-30T13:36:03.992Z,101012.03
2023-01-30T13:38:34.731Z,101013.78
2023-01-30T13:41:03.618Z,101008.59
2023-01-30T13:43:41.943Z,101027.69
2023-01-30T13:46:12.146Z,101056.31
2023-01-30T13:49:06.083Z,101014.66
2023-01-30T13:52:02.887Z,101030.28
2023-01-30T13:54:47.874Z,101028.56
2023-01-30T13:57:24.464Z,101029.44
2023-01-30T14:00:07.367Z,101035.50
2023-01-30T14:02:33.854Z,101029.41
2023-01-30T14:05:03.817Z,101045.03
2023-01-30T14:07:41.773Z,101030.28
2023-01-30T14:10:20.949Z,101058.06
2023-01-30T14:12:54.910Z,101046.78
2023-01-30T14:15:25.629Z,101047.63
2023-01-30T14:17:58.457Z,101048.53
2023-01-30T14:20:27.219Z,101057.19
2023-01-30T14:22:58.096Z,101067.59
2023-01-30T14:25:30.477Z,101067.59
2023-01-30T14:27:59.951Z,101081.47
2023-01-30T14:30:47.684Z,101074.56
2023-01-30T14:33:23.615Z,101075.41
2023-01-30T14:36:02.323Z,101073.66
2023-01-30T14:38:36.724Z,101078.91
2023-01-30T14:41:03.236Z,101082.38
2023-01-30T14:43:41.939Z,101084.94
2023-01-30T14:46:17.433Z,101102.31
2023-01-30T14:49:16.167Z,101106.66
2023-01-30T14:51:45.822Z,101104.03
2023-01-30T14:54:12.575Z,101106.66
2023-01-30T14:56:59.916Z,101112.69
2023-01-30T14:59:59.354Z,101110.09
2023-01-30T15:02:44.311Z,101123.09
2023-01-30T15:05:15.488Z,101124.84
2023-01-30T15:08:02.807Z,101117.91
2023-01-30T15:10:44.934Z,101135.22
2023-01-30T15:13:30.250Z,101157.81
2023-01-30T15:16:15.643Z,101140.47
2023-01-30T15:18:48.356Z,101156.94
2023-01-30T15:21:29.198Z,101162.16
2023-01-30T15:24:30.922Z,101176.03
2023-01-30T15:27:27.247Z,101196.00
2023-01-30T15:30:32.605Z,101175.13
2023-01-30T15:33:29.750Z,101197.69
2023-01-30T15:35:57.949Z,101186.38
2023-01-30T15:38:28.473Z,101189.81
2023-01-30T15:41:06.112Z,101203.72
2023-01-30T15:43:48.725Z,101188.09
2023-01-30T15:46:30.373Z,101206.28
2023-01-30T15:49:07.883Z,101219.31
2023-01-30T15:51:34.970Z,101205.44
2023-01-30T15:54:08.782Z,101201.97
2023-01-30T15:56:35.665Z,101217.53
2023-01-30T15:59:02.863Z,101211.41
2023-01-30T16:01:30.534Z,101228.72
2023-01-30T16:04:00.189Z,101227.00
2023-01-30T16:06:32.805Z,101232.22
2023-01-30T16:09:18.354Z,101244.34
2023-01-30T16:11:44.819Z,101248.72
2023-01-30T16:14:13.837Z,101249.56
2023-01-30T16:16:57.843Z,101257.38
2023-01-30T16:19:37.450Z,101253.00
2023-01-30T16:22:07.082Z,101259.91
2023-01-30T16:24:36.680Z,101264.28
2023-01-30T16:27:07.465Z,101272.97
2023-01-30T16:29:46.528Z,101270.38
2023-01-30T16:32:17.176Z,101278.16
2023-01-30T16:34:43.678Z,101283.38
2023-01-30T16:37:16.281Z,101292.03
2023-01-30T16:39:43.167Z,101286.81
2023-01-30T16:42:24.227Z,101293.78
2023-01-30T16:44:50.657Z,101305.91
2023-01-30T16:47:27.211Z,101307.66
2023-01-30T16:49:55.492Z,101305.03
2023-01-30T16:52:36.852Z,101318.88
2023-01-30T16:55:06.636Z,101317.09
2023-01-30T16:57:43.606Z,101323.97
2023-01-30T17:00:21.618Z,101317.84
2023-01-30T17:02:56.353Z,101323.13
2023-01-30T17:05:28.523Z,101327.44
2023-01-30T17:07:56.248Z,101328.31
2023-01-30T17:10:28.845Z,101327.44
2023-01-30T17:12:56.416Z,101348.25
2023-01-30T17:15:22.838Z,101350.03
2023-01-30T17:17:49.423Z,101353.50
2023-01-30T17:20:16.566Z,101363.91
2023-01-30T17:22:45.891Z,101361.34
2023-01-30T17:25:31.628Z,101368.25
2023-01-30T17:27:58.962Z,101374.31
2023-01-30T17:30:25.433Z,101365.66
2023-01-30T17:32:51.926Z,101391.59
2023-01-30T17:35:18.975Z,101372.50
2023-01-30T17:37:53.192Z,101369.88
2023-01-30T17:40:37.700Z,101392.44
2023-01-30T17:43:04.954Z,101381.13
2023-01-30T17:45:31.668Z,101389.84
2023-01-30T17:47:58.253Z,101401.97
2023-01-30T17:50:24.996Z,101396.69
2023-01-30T17:52:51.528Z,101404.41
2023-01-30T17:55:18.330Z,101402.59
2023-01-30T17:57:47.901Z,101406.09
2023-01-30T18:00:17.005Z,101410.47
2023-01-30T18:02:43.897Z,101422.59
2023-01-30T18:05:11.127Z,101407.81
2023-01-30T18:07:38.269Z,101421.66
2023-01-30T18:10:05.172Z,101432.91
2023-01-30T18:12:31.789Z,101453.66
2023-01-30T18:14:58.649Z,101432.91
2023-01-30T18:17:28.501Z,101446.78
2023-01-30T18:19:55.628Z,101442.44
2023-01-30T18:22:22.496Z,101440.66
2023-01-30T18:24:49.082Z,101449.28
2023-01-30T18:27:15.566Z,101451.81
2023-01-30T18:29:41.966Z,101437.06
2023-01-30T18:32:08.446Z,101444.84
2023-01-30T18:34:35.354Z,101443.88
2023-01-30T18:37:01.826Z,101453.38
2023-01-30T18:39:28.346Z,101446.47
2023-01-30T18:41:54.872Z,101443.00
2023-01-30T18:44:21.423Z,101449.16
2023-01-30T18:46:50.086Z,101454.34
2023-01-30T18:49:16.497Z,101452.63
2023-01-30T18:51:42.931Z,101443.09
2023-01-30T18:54:09.404Z,101454.25
2023-01-30T18:56:36.383Z,101451.53
2023-01-30T18:59:05.480Z,101463.59
2023-01-30T19:01:35.580Z,101461.06
2023-01-30T19:04:03.764Z,101467.09
2023-01-30T19:06:30.483Z,101469.63
2023-01-30T19:08:57.999Z,101477.44
2023-01-30T19:11:43.189Z,101477.44
2023-01-30T19:14:10.132Z,101472.22
2023-01-30T19:16:38.443Z,101492.22
2023-01-30T19:19:06.126Z,101486.09
2023-01-30T19:21:32.978Z,101490.38
2023-01-30T19:24:02.502Z,101485.09
2023-01-30T19:26:29.603Z,101483.38
2023-01-30T19:28:56.109Z,101488.44
2023-01-30T19:31:22.721Z,101482.38
2023-01-30T19:34:00.585Z,101492.72
2023-01-30T19:36:30.251Z,101501.38
2023-01-30T19:38:59.422Z,101497.84
2023-01-30T19:41:29.374Z,101501.25
2023-01-30T19:43:58.126Z,101507.19
2023-01-30T19:46:25.581Z,101520.91
2023-01-30T19:48:52.314Z,101530.41
2023-01-30T19:51:24.541Z,101531.22
2023-01-30T19:53:54.044Z,101532.00
2023-01-30T19:56:22.412Z,101541.50
2023-01-30T19:58:52.323Z,101546.63
2023-01-30T20:01:21.420Z,101545.78
2023-01-30T20:03:48.466Z,101550.91
2023-01-30T20:06:20.955Z,101561.28
2023-01-30T20:08:50.176Z,101564.69
2023-01-30T20:11:21.803Z,101556.94
2023-01-30T20:13:49.432Z,101565.59
2023-01-30T20:16:20.798Z,101562.97
2023-01-30T20:18:49.340Z,101572.53
2023-01-30T20:21:18.691Z,101580.28
2023-01-30T20:23:46.270Z,101587.16
2023-01-30T20:26:17.947Z,101580.16
2023-01-30T20:28:44.676Z,101575.75
2023-01-30T20:31:23.459Z,101580.00
2023-01-30T20:33:50.568Z,101584.25
2023-01-30T20:36:19.522Z,101589.47
2023-01-30T20:38:47.883Z,101606.72
2023-01-30T20:41:20.210Z,101594.69
2023-01-30T20:43:51.667Z,101586.03
2023-01-30T20:46:21.091Z,101595.44
2023-01-30T20:48:48.291Z,101591.09
2023-01-30T20:51:17.659Z,101605.78
2023-01-30T20:53:51.610Z,101616.94
2023-01-30T20:56:19.277Z,101609.13
2023-01-30T20:58:45.988Z,101610.03
2023-01-30T21:01:18.467Z,101611.78
2023-01-30T21:03:46.310Z,101608.25
2023-01-30T21:06:12.920Z,101604.69
2023-01-30T21:08:40.966Z,101607.13
2023-01-30T21:11:10.512Z,101608.88
2023-01-30T21:13:38.215Z,101601.97
2023-01-30T21:16:11.083Z,101601.06
2023-01-30T21:18:39.692Z,101612.28
2023-01-30T21:21:08.185Z,101613.03
2023-01-30T21:23:35.588Z,101620.78
2023-01-30T21:26:07.968Z,101625.09
2023-01-30T21:28:36.881Z,101628.47
2023-01-30T21:31:18.436Z,101631.94
2023-01-30T21:33:45.047Z,101631.91
2023-01-30T21:36:12.578Z,101626.66
2023-01-30T21:38:57.768Z,101624.91
2023-01-30T21:41:46.042Z,101623.16
2023-01-30T21:44:13.781Z,101627.47
2023-01-30T21:46:46.133Z,101626.53
2023-01-30T21:49:13.212Z,101636.91
2023-01-30T21:51:44.828Z,101638.59
2023-01-30T21:54:11.840Z,101632.50
2023-01-30T21:56:39.021Z,101638.53
2023-01-30T21:59:06.227Z,101640.16
2023-01-30T22:01:34.317Z,101635.78
2023-01-30T22:04:03.615Z,101641.84
2023-01-30T22:06:30.501Z,101647.00
2023-01-30T22:08:59.674Z,101641.81
2023-01-30T22:11:27.648Z,101651.34
2023-01-30T22:13:54.843Z,101640.09
2023-01-30T22:16:27.722Z,101651.22
2023-01-30T22:18:56.526Z,101661.66
2023-01-30T22:21:25.797Z,101666.00
2023-01-30T22:23:53.594Z,101667.81
2023-01-30T22:26:22.236Z,101674.81
2023-01-30T22:28:48.695Z,101668.78
2023-01-30T22:31:18.842Z,101659.28
2023-01-30T22:33:51.535Z,101665.38
2023-01-30T22:36:18.604Z,101662.75
2023-01-30T22:38:46.627Z,101661.91
2023-01-30T22:41:17.089Z,101666.31
2023-01-30T22:43:45.549Z,101665.50
2023-01-30T22:46:13.804Z,101673.22
2023-01-30T22:48:41.123Z,101681.88
2023-01-30T22:51:13.548Z,101681.09
2023-01-30T22:53:42.924Z,101676.78
2023-01-30T22:56:11.868Z,101680.22
2023-01-30T22:58:39.387Z,101676.75
2023-01-30T23:01:07.575Z,101674.16
2023-01-30T23:03:34.836Z,101674.09
2023-01-30T23:06:04.268Z,101677.50
2023-01-30T23:08:33.356Z,101683.53
2023-01-30T23:11:10.729Z,101682.66
2023-01-30T23:13:38.160Z,101678.28
2023-01-30T23:16:06.483Z,101671.28
2023-01-30T23:18:52.225Z,101666.16
2023-01-30T23:21:18.851Z,101661.78
2023-01-30T23:23:46.025Z,101673.84
2023-01-30T23:26:13.676Z,101669.50
2023-01-30T23:28:40.409Z,101673.81
2023-01-30T23:31:09.171Z,101683.28
2023-01-30T23:33:35.848Z,101683.28
2023-01-30T23:36:07.237Z,101673.81
2023-01-30T23:38:34.035Z,101682.41
2023-01-30T23:41:12.347Z,101678.09
2023-01-30T23:43:40.940Z,101683.28
2023-01-30T23:46:30.124Z,101678.94
2023-01-30T23:49:02.231Z,101678.88
2023-01-30T23:51:30.742Z,101685.75
2023-01-30T23:53:57.984Z,101684.88
2023-01-30T23:56:27.904Z,101684.88
2023-01-30T23:58:54.688Z,101694.41
